Time;durP1;ratioP1;P1;durP2;ratioP2;P2;SDS_P1;SDS_P2;PMS_P1;PMS_P2;Temp;Humidity;BMP_temperature;BMP_pressure;BME280_temperature;BME280_humidity;BME280_pressure;Samples;Min_cycle;Max_cycle;Signal;HPM_P1;HPM_P2
2022/03/09 00:00:25;;;;;;;0.95;0.20;;;21.80;99.90;;;;;;5055599;28;20028;-65
2022/03/09 00:02:52;;;;;;;1.00;0.00;;;21.90;99.90;;;;;;5056763;28;20024;-64
2022/03/09 00:05:19;;;;;;;0.43;0.00;;;22.10;99.90;;;;;;5057698;28;20028;-64
2022/03/09 00:07:46;;;;;;;0.00;0.00;;;22.20;99.90;;;;;;5068006;28;20044;-65
2022/03/09 00:10:14;;;;;;;0.30;0.00;;;22.20;99.90;;;;;;5059528;28;20048;-65
2022/03/09 00:12:41;;;;;;;2.35;0.05;;;22.20;99.90;;;;;;5056734;28;20122;-65
2022/03/09 00:15:08;;;;;;;0.20;0.20;;;22.20;99.90;;;;;;5059129;28;20021;-65
2022/03/09 00:17:36;;;;;;;1.33;0.10;;;22.30;99.90;;;;;;5058809;28;20036;-65
2022/03/09 00:20:06;;;;;;;0.55;0.03;;;22.30;99.90;;;;;;5057491;28;20071;-65
2022/03/09 00:22:33;;;;;;;1.55;0.13;;;22.30;99.90;;;;;;5058192;28;20399;-65
2022/03/09 00:25:00;;;;;;;0.80;0.10;;;22.20;99.90;;;;;;5061381;28;20424;-65
2022/03/09 00:27:28;;;;;;;1.02;0.40;;;22.10;99.90;;;;;;5058125;28;20024;-66
2022/03/09 00:29:55;;;;;;;1.55;0.20;;;22.00;99.90;;;;;;5057674;28;20546;-65
2022/03/09 00:32:22;;;;;;;0.40;0.08;;;22.00;99.90;;;;;;5065493;28;20048;-67
2022/03/09 00:34:49;;;;;;;1.38;0.15;;;21.90;99.90;;;;;;5076768;28;20058;-66
2022/03/09 00:37:17;;;;;;;2.15;0.10;;;21.90;99.90;;;;;;5072848;28;20021;-66
2022/03/09 00:39:44;;;;;;;0.60;0.10;;;21.90;99.90;;;;;;5060227;28;20048;-66
2022/03/09 00:42:11;;;;;;;1.27;0.15;;;21.90;99.90;;;;;;5073173;28;20025;-67
2022/03/09 00:44:38;;;;;;;3.38;0.10;;;21.90;99.90;;;;;;5069508;28;20105;-67
2022/03/09 00:47:06;;;;;;;2.00;0.10;;;21.90;99.90;;;;;;5071034;28;20025;-67
2022/03/09 00:49:33;;;;;;;0.65;0.10;;;21.90;99.90;;;;;;5068644;28;20341;-66
2022/03/09 00:52:00;;;;;;;1.83;0.20;;;21.80;99.90;;;;;;5076823;28;20446;-66
2022/03/09 00:54:27;;;;;;;2.20;0.50;;;21.80;99.90;;;;;;5067364;28;20029;-67
2022/03/09 00:56:54;;;;;;;0.13;0.10;;;21.80;99.90;;;;;;5074130;28;20021;-66
2022/03/09 00:59:22;;;;;;;1.05;0.10;;;21.80;99.90;;;;;;5075613;28;20016;-66
2022/03/09 01:01:49;;;;;;;0.70;0.10;;;21.80;99.90;;;;;;5059911;28;20021;-66
2022/03/09 01:04:16;;;;;;;2.05;0.28;;;21.90;99.90;;;;;;5066100;28;20032;-67
2022/03/09 01:06:45;;;;;;;0.77;0.20;;;22.10;99.90;;;;;;5085047;28;20060;-67
2022/03/09 01:09:12;;;;;;;2.45;0.22;;;22.30;99.90;;;;;;5071318;28;20024;-67
2022/03/09 01:11:40;;;;;;;2.53;0.50;;;22.30;99.90;;;;;;5066624;28;20033;-66
2022/03/09 01:14:07;;;;;;;1.17;0.30;;;22.30;99.90;;;;;;5068887;28;20020;-67
2022/03/09 01:16:34;;;;;;;2.08;0.30;;;22.30;99.90;;;;;;5063124;28;20060;-67
2022/03/09 01:19:01;;;;;;;0.32;0.10;;;22.60;99.90;;;;;;5064981;28;20025;-67
2022/03/09 01:21:29;;;;;;;1.75;0.30;;;22.70;99.90;;;;;;5062095;28;20029;-67
2022/03/09 01:23:56;;;;;;;1.23;0.40;;;22.80;99.90;;;;;;5062959;28;20025;-67
2022/03/09 01:26:24;;;;;;;2.22;0.30;;;22.80;99.90;;;;;;5059541;28;20025;-66
2022/03/09 01:28:51;;;;;;;1.45;0.25;;;22.90;99.90;;;;;;5066635;28;20500;-66
2022/03/09 01:31:18;;;;;;;2.50;0.70;;;23.00;99.90;;;;;;5056871;28;20065;-66
2022/03/09 01:33:46;;;;;;;2.63;0.20;;;23.00;99.90;;;;;;5057386;28;20033;-66
2022/03/09 01:36:13;;;;;;;0.80;0.10;;;23.00;99.90;;;;;;5055109;28;20087;-66
2022/03/09 01:38:40;;;;;;;2.38;0.32;;;22.90;99.90;;;;;;5069665;28;20060;-66
2022/03/09 01:41:08;;;;;;;2.47;0.30;;;22.90;99.90;;;;;;5063786;28;20025;-66
2022/03/09 01:43:35;;;;;;;0.98;0.17;;;22.80;99.90;;;;;;5068362;28;20032;-67
2022/03/09 01:46:02;;;;;;;1.35;0.43;;;22.70;99.90;;;;;;5055337;28;20033;-66
2022/03/09 01:48:29;;;;;;;2.00;0.40;;;22.50;99.90;;;;;;5056151;28;20028;-67
2022/03/09 01:50:57;;;;;;;1.83;0.45;;;22.40;99.90;;;;;;5056579;28;20041;-67
2022/03/09 01:53:28;;;;;;;1.67;0.28;;;22.30;99.90;;;;;;5067195;28;20045;-66
2022/03/09 01:55:55;;;;;;;1.50;0.40;;;22.20;99.90;;;;;;5052988;28;20495;-66
2022/03/09 01:58:23;;;;;;;6.43;0.63;;;22.20;99.90;;;;;;5059643;28;20020;-66
2022/03/09 02:00:50;;;;;;;2.08;0.25;;;22.30;99.90;;;;;;5055611;28;20059;-66
2022/03/09 02:03:17;;;;;;;2.40;0.52;;;22.40;99.90;;;;;;5066068;28;20515;-66
2022/03/09 02:05:44;;;;;;;4.05;0.55;;;22.50;99.90;;;;;;5055666;28;20029;-67
2022/03/09 02:10:57;;;;;;;2.63;0.35;;;22.50;99.90;;;;;;5054713;28;20048;-66
2022/03/09 02:13:24;;;;;;;3.05;0.40;;;22.40;99.90;;;;;;5056394;28;20500;-66
2022/03/09 02:15:51;;;;;;;2.78;0.30;;;22.40;99.90;;;;;;5069036;28;20025;-67
2022/03/09 02:18:19;;;;;;;1.90;0.22;;;22.40;99.90;;;;;;5054909;28;20029;-67
2022/03/09 02:20:48;;;;;;;2.15;0.38;;;22.50;99.90;;;;;;5059799;28;20021;-67
2022/03/09 02:23:15;;;;;;;5.93;0.73;;;22.60;99.90;;;;;;5063190;28;20064;-66
2022/03/09 02:25:43;;;;;;;3.38;0.47;;;22.70;99.90;;;;;;5062110;28;20032;-67
2022/03/09 02:28:10;;;;;;;3.38;0.47;;;22.90;99.90;;;;;;5062476;28;20024;-67
2022/03/09 02:30:37;;;;;;;1.98;0.45;;;22.80;99.90;;;;;;5072098;28;20390;-66
2022/03/09 02:33:05;;;;;;;1.60;0.32;;;22.80;99.90;;;;;;5060253;28;20491;-66
2022/03/09 02:35:32;;;;;;;3.25;0.20;;;22.80;99.90;;;;;;5059812;28;20020;-67
2022/03/09 02:38:00;;;;;;;2.05;0.40;;;22.80;99.90;;;;;;5064870;28;20021;-66
2022/03/09 02:40:27;;;;;;;4.47;0.43;;;22.80;99.90;;;;;;5071141;28;20020;-66
2022/03/09 02:42:54;;;;;;;2.75;0.40;;;22.90;99.90;;;;;;5063973;28;20064;-66
2022/03/09 02:45:21;;;;;;;2.25;0.40;;;22.90;99.90;;;;;;5064513;28;20043;-66
2022/03/09 02:47:49;;;;;;;1.77;0.40;;;22.90;99.90;;;;;;5059998;28;20024;-66
2022/03/09 02:50:17;;;;;;;4.47;0.35;;;22.90;99.90;;;;;;5060001;28;20124;-66
2022/03/09 02:52:45;;;;;;;3.28;0.22;;;22.80;99.90;;;;;;5065963;28;20036;-66
2022/03/09 02:55:13;;;;;;;2.13;0.32;;;22.90;99.90;;;;;;5066259;28;20027;-66
2022/03/09 02:57:41;;;;;;;1.17;0.22;;;23.00;99.90;;;;;;5057155;28;20067;-67
2022/03/09 03:00:09;;;;;;;2.80;0.32;;;23.00;99.90;;;;;;5060181;28;20067;-66
2022/03/09 03:02:38;;;;;;;1.52;0.20;;;23.10;99.90;;;;;;5063680;28;20037;-66
2022/03/09 03:05:09;;;;;;;0.88;0.28;;;23.10;99.90;;;;;;5058356;28;20029;-66
2022/03/09 03:07:37;;;;;;;2.40;0.17;;;23.10;99.90;;;;;;5057900;28;20031;-68
2022/03/09 03:10:05;;;;;;;1.17;0.20;;;22.90;99.90;;;;;;5063820;28;20032;-66
2022/03/09 03:12:33;;;;;;;5.32;0.30;;;22.90;99.90;;;;;;5064668;28;20112;-65
2022/03/09 03:15:00;;;;;;;2.00;0.32;;;22.90;99.90;;;;;;5063946;28;20108;-67
2022/03/09 03:17:27;;;;;;;1.60;0.50;;;23.00;99.90;;;;;;5067033;28;20048;-66
2022/03/09 03:19:54;;;;;;;1.52;0.40;;;23.10;99.90;;;;;;5060571;28;20059;-66
2022/03/09 03:22:22;;;;;;;2.28;0.30;;;23.20;99.90;;;;;;5068981;28;20024;-66
2022/03/09 03:24:49;;;;;;;2.40;0.47;;;23.30;99.90;;;;;;5062583;28;20117;-67
2022/03/09 03:27:16;;;;;;;1.73;0.20;;;23.30;99.90;;;;;;5058203;28;20024;-66
2022/03/09 03:29:43;;;;;;;0.95;0.15;;;23.40;99.90;;;;;;5059971;28;20430;-66
2022/03/09 03:32:11;;;;;;;0.80;0.20;;;23.50;99.90;;;;;;5074420;28;20040;-66
2022/03/09 03:34:39;;;;;;;0.70;0.17;;;23.60;99.90;;;;;;5073662;28;20023;-65
2022/03/09 03:37:06;;;;;;;0.95;0.20;;;23.60;99.90;;;;;;5075695;28;20025;-66
2022/03/09 03:39:34;;;;;;;3.85;0.47;;;23.50;99.90;;;;;;5073791;28;20026;-66
2022/03/09 03:42:02;;;;;;;1.48;0.10;;;23.50;99.90;;;;;;5081470;28;20084;-66
2022/03/09 03:44:29;;;;;;;1.33;0.10;;;23.40;99.90;;;;;;5081288;28;20033;-66
2022/03/09 03:46:56;;;;;;;2.08;0.28;;;23.30;99.90;;;;;;5077542;28;20028;-65
2022/03/09 03:49:24;;;;;;;3.15;0.30;;;23.20;99.90;;;;;;5083225;28;20025;-66
2022/03/09 03:51:52;;;;;;;1.80;0.20;;;23.10;99.90;;;;;;5077036;28;20045;-65
2022/03/09 03:54:19;;;;;;;2.53;0.47;;;22.80;99.90;;;;;;5077972;28;20033;-66
2022/03/09 03:56:47;;;;;;;1.77;0.30;;;22.90;99.90;;;;;;5078894;28;20036;-66
2022/03/09 03:59:14;;;;;;;2.88;0.47;;;22.80;99.90;;;;;;5080823;28;20033;-66
2022/03/09 04:01:42;;;;;;;4.82;1.00;;;22.90;99.90;;;;;;5085249;28;20017;-66
2022/03/09 04:04:09;;;;;;;3.47;0.47;;;23.10;99.90;;;;;;5080513;28;20060;-66
2022/03/09 04:06:36;;;;;;;3.55;0.60;;;23.20;99.90;;;;;;5092833;28;20012;-66
2022/03/09 04:09:04;;;;;;;5.57;0.63;;;23.00;99.90;;;;;;5095910;28;20013;-66
2022/03/09 04:11:31;;;;;;;3.03;0.45;;;23.20;99.90;;;;;;5084769;28;20052;-66
2022/03/09 04:13:58;;;;;;;1.13;0.28;;;23.20;99.90;;;;;;5075308;28;20025;-67
2022/03/09 04:16:26;;;;;;;4.22;0.63;;;23.10;99.90;;;;;;5078800;28;20020;-65
2022/03/09 04:18:53;;;;;;;2.88;0.30;;;23.10;99.90;;;;;;5087212;28;20045;-65
2022/03/09 04:21:20;;;;;;;1.95;0.35;;;23.20;99.90;;;;;;5077120;28;20052;-66
2022/03/09 04:23:47;;;;;;;4.22;0.60;;;23.30;99.90;;;;;;5075797;28;20029;-66
2022/03/09 04:26:14;;;;;;;1.33;0.20;;;23.50;99.90;;;;;;5073710;28;20036;-66
2022/03/09 04:28:42;;;;;;;2.97;0.40;;;23.30;99.90;;;;;;5083038;28;20022;-66
2022/03/09 04:31:09;;;;;;;3.75;0.45;;;23.30;99.90;;;;;;5072629;28;20025;-66
2022/03/09 04:33:36;;;;;;;1.63;0.22;;;23.20;99.90;;;;;;5079894;28;20029;-65
2022/03/09 04:36:05;;;;;;;1.15;0.30;;;23.30;99.90;;;;;;5082038;28;20029;-66
2022/03/09 04:38:33;;;;;;;1.15;0.25;;;23.30;99.90;;;;;;5077466;28;20029;-66
2022/03/09 04:41:00;;;;;;;0.45;0.15;;;23.20;99.90;;;;;;5074361;28;20044;-66
2022/03/09 04:43:27;;;;;;;1.40;0.20;;;23.10;99.90;;;;;;5073001;28;20020;-66
2022/03/09 04:45:54;;;;;;;1.25;0.10;;;23.00;99.90;;;;;;5073344;28;20024;-66
2022/03/09 04:48:22;;;;;;;1.40;0.47;;;23.00;99.90;;;;;;5073401;28;20007;-65
2022/03/09 04:50:49;;;;;;;3.70;0.70;;;22.90;99.90;;;;;;5077335;28;20393;-66
2022/03/09 04:53:16;;;;;;;2.53;0.40;;;22.80;99.90;;;;;;5079636;28;20033;-65
2022/03/09 04:55:43;;;;;;;0.77;0.20;;;22.80;99.90;;;;;;5076812;28;20017;-66
2022/03/09 04:58:11;;;;;;;6.35;0.93;;;22.60;99.90;;;;;;5067113;28;20031;-67
2022/03/09 05:00:38;;;;;;;4.20;0.90;;;22.70;99.90;;;;;;5060948;28;20056;-67
2022/03/09 05:03:06;;;;;;;3.47;0.40;;;22.80;99.90;;;;;;5062493;28;20046;-66
2022/03/09 05:05:33;;;;;;;3.90;0.88;;;22.80;99.90;;;;;;5062548;28;20036;-67
2022/03/09 05:08:00;;;;;;;3.00;0.45;;;22.70;99.90;;;;;;5064611;28;20039;-67
2022/03/09 05:10:27;;;;;;;4.93;0.50;;;22.70;99.90;;;;;;5064521;28;20020;-67
2022/03/09 05:12:55;;;;;;;3.28;0.50;;;22.70;99.90;;;;;;5065299;28;20452;-67
2022/03/09 05:15:22;;;;;;;1.88;0.20;;;22.60;99.90;;;;;;5056546;28;20495;-67
2022/03/09 05:17:49;;;;;;;2.05;0.60;;;22.70;99.90;;;;;;5061013;28;20036;-66
2022/03/09 05:20:16;;;;;;;2.55;0.45;;;22.80;99.90;;;;;;5063599;28;20047;-66
2022/03/09 05:22:44;;;;;;;4.15;0.60;;;22.90;99.90;;;;;;5059982;28;20032;-66
2022/03/09 05:25:11;;;;;;;4.07;0.52;;;22.80;99.90;;;;;;5079914;28;20037;-66
2022/03/09 05:27:38;;;;;;;33.67;14.00;;;22.80;99.90;;;;;;5079230;28;20051;-66
2022/03/09 05:30:08;;;;;;;7.70;1.40;;;22.90;99.90;;;;;;5085666;28;20013;-65
2022/03/09 05:32:36;;;;;;;1.95;0.40;;;22.90;99.90;;;;;;5085425;28;20021;-66
2022/03/09 05:35:04;;;;;;;18.50;7.88;;;23.10;99.90;;;;;;5078271;28;20028;-66
2022/03/09 05:37:39;;;;;;;3.38;0.82;;;23.20;99.90;;;;;;5079900;28;20298;-65
2022/03/09 05:40:08;;;;;;;2.13;0.40;;;23.20;99.90;;;;;;5078794;28;20035;-65
2022/03/09 05:42:36;;;;;;;2.65;0.50;;;23.30;99.90;;;;;;5083190;28;20014;-65
2022/03/09 05:45:04;;;;;;;2.28;0.60;;;23.30;99.90;;;;;;5084455;28;20024;-66
2022/03/09 05:47:32;;;;;;;6.20;0.75;;;23.30;99.90;;;;;;5081774;28;20025;-65
2022/03/09 05:49:59;;;;;;;4.82;0.70;;;23.30;99.90;;;;;;5084450;28;20049;-65
2022/03/09 05:52:26;;;;;;;1.60;0.32;;;23.30;99.90;;;;;;5082914;28;20052;-68
2022/03/09 05:54:53;;;;;;;3.33;0.50;;;23.20;99.90;;;;;;5073068;28;20028;-66
2022/03/09 05:57:22;;;;;;;2.83;0.57;;;23.20;99.90;;;;;;5079064;28;20059;-66
2022/03/09 05:59:50;;;;;;;2.28;0.60;;;23.40;99.90;;;;;;5079596;28;20040;-67
2022/03/09 06:02:17;;;;;;;3.10;0.30;;;23.40;99.90;;;;;;5085463;28;20029;-66
2022/03/09 06:04:45;;;;;;;6.53;0.77;;;23.60;99.90;;;;;;5075459;28;20029;-66
2022/03/09 06:07:12;;;;;;;4.88;0.60;;;23.40;99.90;;;;;;5074755;28;20013;-67
2022/03/09 06:09:40;;;;;;;13.60;1.33;;;23.20;99.90;;;;;;5077999;28;20035;-66
2022/03/09 06:12:08;;;;;;;5.32;1.05;;;23.10;99.90;;;;;;5073470;28;20051;-66
2022/03/09 06:14:35;;;;;;;3.38;1.02;;;23.00;99.90;;;;;;5074905;28;20055;-67
2022/03/09 06:17:02;;;;;;;9.55;1.67;;;23.00;99.90;;;;;;5076134;28;20017;-66
2022/03/09 06:19:30;;;;;;;6.65;1.50;;;23.00;99.90;;;;;;5077837;28;20036;-66
2022/03/09 06:21:57;;;;;;;9.85;1.73;;;22.90;99.90;;;;;;5072918;28;20021;-66
2022/03/09 06:24:24;;;;;;;12.88;2.25;;;22.90;99.90;;;;;;5079064;28;20071;-66
2022/03/09 06:26:53;;;;;;;9.93;1.88;;;22.80;99.90;;;;;;5079152;28;20013;-65
2022/03/09 06:29:21;;;;;;;11.98;2.88;;;22.70;99.90;;;;;;5076224;28;20093;-66
2022/03/09 06:31:48;;;;;;;16.50;2.60;;;22.60;99.90;;;;;;5077311;28;20039;-66
2022/03/09 06:34:16;;;;;;;18.38;3.20;;;22.60;99.90;;;;;;5099937;28;20017;-66
2022/03/09 06:36:44;;;;;;;15.88;2.92;;;22.60;99.90;;;;;;5083813;28;20067;-66
2022/03/09 06:39:16;;;;;;;7.65;1.85;;;22.40;99.90;;;;;;5084241;28;20024;-66
2022/03/09 06:41:44;;;;;;;11.20;2.63;;;22.30;99.90;;;;;;5078706;28;20024;-66
2022/03/09 06:44:13;;;;;;;10.20;2.50;;;22.20;99.90;;;;;;5080985;28;20055;-66
2022/03/09 06:46:41;;;;;;;12.13;2.85;;;22.00;99.90;;;;;;5083317;28;20482;-66
2022/03/09 06:49:09;;;;;;;12.45;1.75;;;21.90;99.90;;;;;;5085314;28;20039;-65
2022/03/09 06:51:37;;;;;;;12.65;2.50;;;21.80;99.90;;;;;;5086191;28;20029;-66
2022/03/09 06:54:04;;;;;;;14.77;2.95;;;21.90;99.90;;;;;;5078538;28;20029;-66
2022/03/09 06:56:34;;;;;;;7.43;2.03;;;22.00;99.90;;;;;;5081183;28;20021;-65
2022/03/09 06:59:02;;;;;;;10.93;2.55;;;22.00;99.90;;;;;;5080041;28;20029;-65
2022/03/09 07:01:32;;;;;;;11.30;2.10;;;22.00;99.90;;;;;;5086896;28;20048;-66
2022/03/09 07:03:59;;;;;;;10.50;2.03;;;21.90;99.90;;;;;;5079576;28;20159;-65
2022/03/09 07:06:28;;;;;;;10.05;1.95;;;22.00;99.90;;;;;;5080159;28;20036;-64
2022/03/09 07:08:55;;;;;;;10.35;3.70;;;21.90;99.90;;;;;;5084477;28;20009;-65
2022/03/09 07:11:22;;;;;;;30.75;6.82;;;21.80;99.90;;;;;;5086684;28;20021;-65
2022/03/09 07:13:49;;;;;;;14.35;2.53;;;21.80;99.90;;;;;;5078840;28;20078;-65
2022/03/09 07:16:17;;;;;;;10.02;2.53;;;21.80;99.90;;;;;;5084008;28;20023;-65
2022/03/09 07:18:44;;;;;;;12.38;2.58;;;21.80;99.90;;;;;;5093363;28;20012;-65
2022/03/09 07:21:13;;;;;;;10.95;2.28;;;21.80;99.90;;;;;;5085986;28;20032;-65
2022/03/09 07:23:41;;;;;;;11.80;2.45;;;21.80;99.90;;;;;;5087671;28;20084;-65
2022/03/09 07:26:09;;;;;;;13.13;2.75;;;21.80;99.90;;;;;;5096103;28;20036;-65
2022/03/09 07:28:36;;;;;;;11.05;2.40;;;21.70;99.90;;;;;;5093022;28;20016;-65
2022/03/09 07:31:03;;;;;;;15.70;3.17;;;21.70;99.90;;;;;;5088376;28;20068;-65
2022/03/09 07:33:31;;;;;;;12.77;2.83;;;21.60;99.90;;;;;;5095509;28;20060;-65
2022/03/09 07:36:00;;;;;;;8.95;1.77;;;21.50;99.90;;;;;;5097306;28;20021;-66
2022/03/09 07:38:27;;;;;;;12.77;2.22;;;21.40;99.90;;;;;;5086054;28;20016;-65
2022/03/09 07:44:17;;;;;;;12.27;2.05;;;21.20;99.90;;;;;;5082495;28;20025;-65
2022/03/09 07:46:44;;;;;;;12.77;2.78;;;21.10;99.90;;;;;;5085012;28;20024;-65
2022/03/09 07:49:12;;;;;;;10.02;2.15;;;21.10;99.90;;;;;;5080783;28;20005;-65
2022/03/09 07:51:39;;;;;;;9.48;1.77;;;21.10;99.90;;;;;;5091340;28;20090;-65
2022/03/09 07:54:07;;;;;;;6.82;2.20;;;21.00;99.90;;;;;;5096985;28;20043;-65
2022/03/09 07:56:37;;;;;;;7.13;2.08;;;21.00;99.90;;;;;;5086251;28;20017;-65
2022/03/09 07:59:05;;;;;;;8.20;1.52;;;20.90;99.90;;;;;;5090905;28;20052;-66
2022/03/09 08:01:33;;;;;;;11.75;2.00;;;20.90;99.90;;;;;;5084931;28;20032;-66
2022/03/09 08:04:00;;;;;;;13.07;4.55;;;20.80;99.90;;;;;;5084542;28;20032;-65
2022/03/09 08:06:28;;;;;;;11.15;2.90;;;20.80;99.90;;;;;;5083244;28;20069;-65
2022/03/09 08:08:55;;;;;;;11.00;2.95;;;20.80;99.90;;;;;;5083781;28;20021;-65
2022/03/09 08:11:23;;;;;;;11.27;2.13;;;20.70;99.90;;;;;;5093308;28;20032;-65
2022/03/09 08:13:50;;;;;;;16.00;2.00;;;20.60;99.90;;;;;;5086882;28;20017;-65
2022/03/09 08:16:18;;;;;;;14.05;2.30;;;20.60;99.90;;;;;;5082433;28;20033;-65
2022/03/09 08:18:45;;;;;;;10.95;2.33;;;20.60;99.90;;;;;;5087372;28;20024;-65
2022/03/09 08:21:12;;;;;;;13.15;2.10;;;20.50;99.90;;;;;;5088415;28;20025;-65
2022/03/09 08:23:40;;;;;;;10.07;2.28;;;20.50;99.90;;;;;;5081824;28;20013;-65
2022/03/09 08:26:08;;;;;;;9.88;2.20;;;20.50;99.90;;;;;;5084472;28;20060;-66
2022/03/09 08:28:36;;;;;;;14.98;3.08;;;20.40;99.90;;;;;;5084668;28;20035;-66
2022/03/09 08:31:03;;;;;;;21.13;2.53;;;20.30;99.90;;;;;;5082961;28;20037;-63
2022/03/09 08:33:31;;;;;;;11.32;2.67;;;20.30;99.90;;;;;;5079467;28;20120;-63
2022/03/09 08:35:58;;;;;;;11.75;1.98;;;20.20;99.90;;;;;;5073733;28;20025;-62
2022/03/09 08:38:25;;;;;;;10.00;2.83;;;20.20;99.90;;;;;;5081056;28;20024;-63
2022/03/09 08:40:53;;;;;;;12.25;2.60;;;20.20;99.90;;;;;;5094847;28;20020;-63
2022/03/09 08:43:21;;;;;;;12.38;2.35;;;20.10;99.90;;;;;;5088015;28;20053;-62
2022/03/09 08:45:48;;;;;;;16.60;3.00;;;20.10;99.90;;;;;;5076517;28;20011;-63
2022/03/09 08:48:15;;;;;;;17.17;3.40;;;20.10;99.90;;;;;;5078391;28;20021;-63
2022/03/09 08:50:43;;;;;;;12.30;2.97;;;20.10;99.90;;;;;;5074146;28;20041;-63
2022/03/09 08:53:10;;;;;;;12.45;2.80;;;20.10;99.90;;;;;;5085343;28;20028;-63
2022/03/09 08:55:38;;;;;;;13.63;3.38;;;20.10;99.90;;;;;;5072987;28;20033;-63
2022/03/09 08:58:06;;;;;;;20.70;3.33;;;20.00;99.90;;;;;;5076875;28;20054;-63
2022/03/09 09:00:33;;;;;;;15.48;3.45;;;20.00;99.90;;;;;;5070282;28;20029;-63
2022/03/09 09:03:01;;;;;;;13.57;2.95;;;20.00;99.90;;;;;;5078528;28;20032;-62
2022/03/09 09:05:28;;;;;;;14.07;2.50;;;19.90;99.90;;;;;;5078616;28;20010;-62
2022/03/09 09:07:56;;;;;;;14.55;2.50;;;19.90;99.90;;;;;;5078823;28;20020;-63
2022/03/09 09:10:23;;;;;;;11.93;2.08;;;19.90;99.90;;;;;;5087481;28;20029;-63
2022/03/09 09:12:51;;;;;;;9.35;2.90;;;19.80;99.90;;;;;;5085076;28;20012;-63
2022/03/09 09:15:19;;;;;;;9.00;2.25;;;19.90;99.90;;;;;;5094307;28;20044;-62
2022/03/09 09:17:46;;;;;;;13.00;2.83;;;19.80;99.90;;;;;;5088469;28;20032;-62
2022/03/09 09:20:14;;;;;;;14.00;2.63;;;19.80;99.90;;;;;;5078651;28;20025;-63
2022/03/09 09:22:43;;;;;;;10.30;1.90;;;19.80;99.90;;;;;;5086465;28;20010;-63
2022/03/09 09:25:11;;;;;;;11.50;2.13;;;19.80;99.90;;;;;;5074952;28;20055;-63
2022/03/09 09:27:39;;;;;;;7.10;1.15;;;19.70;99.90;;;;;;5074374;28;20037;-63
2022/03/09 09:30:07;;;;;;;8.25;1.48;;;19.80;99.90;;;;;;5079550;28;20023;-63
2022/03/09 09:32:35;;;;;;;9.40;1.63;;;19.70;99.90;;;;;;5074829;28;20047;-63
2022/03/09 09:35:04;;;;;;;7.15;2.80;;;19.70;99.90;;;;;;5071434;28;20025;-63
2022/03/09 09:37:31;;;;;;;10.55;1.95;;;19.60;99.90;;;;;;5073161;28;20030;-63
2022/03/09 09:39:58;;;;;;;12.00;1.77;;;19.60;99.90;;;;;;5075657;28;20050;-63
2022/03/09 09:42:31;;;;;;;14.98;2.13;;;19.50;99.90;;;;;;5081793;28;20020;-63
2022/03/09 09:45:00;;;;;;;12.07;3.33;;;19.50;99.90;;;;;;5092483;28;20007;-64
2022/03/09 09:47:37;;;;;;;10.50;1.63;;;19.50;99.90;;;;;;5075157;28;20025;-63
2022/03/09 09:50:06;;;;;;;15.10;2.50;;;19.50;99.90;;;;;;5083159;28;20052;-63
2022/03/09 09:52:36;;;;;;;17.08;2.97;;;19.40;99.90;;;;;;5086082;28;20028;-63
2022/03/09 09:55:07;;;;;;;12.20;2.25;;;19.40;99.90;;;;;;5079506;28;20032;-63
2022/03/09 09:57:35;;;;;;;9.93;2.33;;;19.40;99.90;;;;;;5092656;28;20052;-62
2022/03/09 10:00:05;;;;;;;15.10;2.63;;;19.40;99.90;;;;;;5080225;28;20009;-63
2022/03/09 10:02:36;;;;;;;11.70;2.00;;;19.40;99.90;;;;;;5064439;28;20159;-61
2022/03/09 10:05:04;;;;;;;16.20;2.88;;;19.30;99.90;;;;;;5070824;28;20028;-61
2022/03/09 10:07:31;;;;;;;12.48;2.53;;;19.30;99.90;;;;;;5066347;28;20021;-60
2022/03/09 10:09:59;;;;;;;13.50;2.50;;;19.30;99.90;;;;;;5068348;28;20025;-61
2022/03/09 10:12:28;;;;;;;16.77;3.22;;;19.30;99.90;;;;;;5077261;28;20064;-60
2022/03/09 10:14:56;;;;;;;16.40;3.22;;;19.20;99.90;;;;;;5073696;28;20018;-60
2022/03/09 10:17:30;;;;;;;18.73;3.22;;;19.30;99.90;;;;;;5073579;28;20040;-60
2022/03/09 10:20:09;;;;;;;15.40;2.88;;;19.30;99.90;;;;;;5069896;28;20028;-60
2022/03/09 10:22:41;;;;;;;10.57;2.55;;;19.20;99.90;;;;;;5060061;28;20036;-60
2022/03/09 10:25:12;;;;;;;16.02;3.15;;;19.20;99.90;;;;;;5061423;28;20025;-60
2022/03/09 10:27:43;;;;;;;18.95;4.13;;;19.20;99.90;;;;;;5061342;28;20025;-60
2022/03/09 10:30:14;;;;;;;21.48;4.10;;;19.20;99.90;;;;;;5066052;28;20070;-60
2022/03/09 10:32:47;;;;;;;14.13;2.70;;;19.10;99.90;;;;;;5069605;28;20036;-65
2022/03/09 10:35:18;;;;;;;19.45;3.67;;;19.10;99.90;;;;;;5080868;28;20040;-66
2022/03/09 10:37:48;;;;;;;9.95;2.40;;;19.10;99.90;;;;;;5082901;28;20029;-65
2022/03/09 10:40:21;;;;;;;16.65;2.80;;;19.10;99.90;;;;;;5081301;28;20020;-66
2022/03/09 10:42:50;;;;;;;17.90;3.45;;;19.10;99.90;;;;;;5080073;28;20031;-66
2022/03/09 10:45:18;;;;;;;11.45;2.88;;;19.10;99.90;;;;;;5079637;28;20033;-66
2022/03/09 10:47:49;;;;;;;23.23;4.28;;;19.10;99.90;;;;;;5085170;28;20073;-66
2022/03/09 10:50:24;;;;;;;22.70;2.70;;;19.10;99.90;;;;;;5071944;28;20049;-65
2022/03/09 10:53:08;;;;;;;15.80;3.20;;;19.10;99.90;;;;;;5084248;28;20025;-66
2022/03/09 10:55:38;;;;;;;14.95;3.13;;;19.10;99.90;;;;;;5075986;28;20068;-65
2022/03/09 10:58:20;;;;;;;17.98;2.85;;;19.10;99.90;;;;;;5073913;28;20036;-65
2022/03/09 11:00:55;;;;;;;19.60;3.30;;;19.10;99.90;;;;;;5073415;28;20013;-66
2022/03/09 11:03:25;;;;;;;15.93;3.72;;;19.10;99.90;;;;;;5077558;28;20036;-66
2022/03/09 11:05:58;;;;;;;12.70;3.08;;;19.10;99.90;;;;;;5079226;28;20005;-66
2022/03/09 11:08:28;;;;;;;17.05;3.17;;;19.10;99.90;;;;;;5077327;28;20001;-66
2022/03/09 11:11:00;;;;;;;14.68;2.63;;;19.10;99.90;;;;;;5076071;28;20040;-66
2022/03/09 11:13:29;;;;;;;18.92;3.22;;;19.20;99.90;;;;;;5083842;28;20049;-66
2022/03/09 11:15:57;;;;;;;20.40;3.08;;;19.20;99.90;;;;;;5081144;28;20017;-65
2022/03/09 11:18:26;;;;;;;15.68;2.33;;;19.10;99.90;;;;;;5081329;28;20017;-65
2022/03/09 11:20:57;;;;;;;18.83;4.05;;;19.10;99.90;;;;;;5082466;28;20032;-66
2022/03/09 11:23:26;;;;;;;12.95;2.83;;;19.10;99.90;;;;;;5086904;28;20047;-65
2022/03/09 11:25:57;;;;;;;15.23;3.08;;;19.10;99.90;;;;;;5084276;28;20041;-65
2022/03/09 11:28:29;;;;;;;17.30;3.30;;;19.10;99.90;;;;;;5076645;28;20028;-66
2022/03/09 11:31:05;;;;;;;16.90;2.85;;;19.10;99.90;;;;;;5081605;28;20051;-65
2022/03/09 11:33:53;;;;;;;16.77;2.88;;;19.10;99.90;;;;;;5083388;28;20033;-65
2022/03/09 11:36:30;;;;;;;10.55;1.65;;;19.10;99.90;;;;;;5082293;28;20025;-65
2022/03/09 11:39:03;;;;;;;13.93;3.35;;;19.10;99.90;;;;;;5087849;28;20032;-66
2022/03/09 11:41:36;;;;;;;11.50;1.80;;;19.00;99.90;;;;;;5080591;28;20009;-66
2022/03/09 11:44:21;;;;;;;19.45;3.17;;;19.00;99.90;;;;;;5076851;28;20033;-66
2022/03/09 11:47:04;;;;;;;16.52;2.38;;;19.00;99.90;;;;;;5077243;28;20123;-66
2022/03/09 11:49:41;;;;;;;8.57;1.55;;;19.00;99.90;;;;;;5088033;28;20044;-66
2022/03/09 11:52:19;;;;;;;12.35;1.92;;;19.00;99.90;;;;;;5081575;28;20035;-65
2022/03/09 11:55:01;;;;;;;7.32;1.50;;;19.00;99.90;;;;;;5085031;28;20050;-66
2022/03/09 11:57:47;;;;;;;9.57;1.98;;;19.00;99.90;;;;;;5076448;28;20038;-65
2022/03/09 12:00:19;;;;;;;13.32;2.00;;;19.00;99.90;;;;;;5085965;28;20077;-65
2022/03/09 12:02:51;;;;;;;13.27;2.42;;;19.00;99.90;;;;;;5083763;28;20113;-65
2022/03/09 12:05:35;;;;;;;15.57;3.50;;;18.90;99.90;;;;;;5080969;28;20017;-65
2022/03/09 12:08:03;;;;;;;;;;;18.90;99.90;;;;;;5084383;28;20044;-65
2022/03/09 12:10:51;;;;;;;13.25;2.08;;;18.90;99.90;;;;;;5078562;28;19964;-66
2022/03/09 12:13:25;;;;;;;16.63;3.00;;;18.80;99.90;;;;;;5081183;28;20020;-65
2022/03/09 12:16:15;;;;;;;13.07;2.90;;;18.80;99.90;;;;;;5080775;28;20036;-65
2022/03/09 12:19:04;;;;;;;17.95;2.80;;;18.80;99.90;;;;;;5078882;28;20619;-65
2022/03/09 12:21:42;;;;;;;13.20;2.45;;;18.80;99.90;;;;;;5079182;28;20023;-66
2022/03/09 12:24:19;;;;;;;11.30;2.70;;;18.80;99.90;;;;;;5077657;28;20029;-66
2022/03/09 12:26:49;;;;;;;11.93;2.60;;;18.80;99.90;;;;;;5085406;28;20013;-66
2022/03/09 12:29:29;;;;;;;12.32;3.05;;;18.70;99.90;;;;;;5080421;28;20021;-66
2022/03/09 12:32:06;;;;;;;13.63;2.63;;;18.70;99.90;;;;;;5079713;28;20060;-65
2022/03/09 12:34:45;;;;;;;15.23;2.72;;;18.70;99.90;;;;;;5078171;28;20040;-66
2022/03/09 12:37:16;;;;;;;12.70;3.47;;;18.70;99.90;;;;;;5080695;28;20029;-66
2022/03/09 12:39:52;;;;;;;10.05;2.33;;;18.70;99.90;;;;;;5090259;28;20021;-66
2022/03/09 12:42:21;;;;;;;11.02;2.67;;;18.70;99.90;;;;;;5080632;28;20029;-65
2022/03/09 12:44:49;;;;;;;12.90;3.15;;;18.70;99.90;;;;;;5078625;28;20028;-65
2022/03/09 12:47:19;;;;;;;19.30;3.83;;;18.70;99.90;;;;;;5079119;28;20025;-65
2022/03/09 12:49:49;;;;;;;12.25;2.53;;;18.60;99.90;;;;;;5082721;28;20056;-66
2022/03/09 12:52:19;;;;;;;13.20;3.65;;;18.60;99.90;;;;;;5084829;28;20036;-66
2022/03/09 12:54:50;;;;;;;12.75;2.90;;;18.60;99.90;;;;;;5083804;28;20037;-65
2022/03/09 12:57:29;;;;;;;14.32;2.75;;;18.60;99.90;;;;;;5081813;28;20021;-65